sensor_id;sensor_type;location;lat;lon;timestamp;pressure;altitude;pressure_sealevel;temperature;humidity
14242;BME280;7205;50.864;12.766;2023-09-30T00:00:09;98141.41;;;19.77;82.13
14242;BME280;7205;50.864;12.766;2023-09-30T00:02:37;98145.25;;;19.63;83.24
14242;BME280;7205;50.864;12.766;2023-09-30T00:05:04;98146.59;;;19.48;84.18
14242;BME280;7205;50.864;12.766;2023-09-30T00:07:31;98158.25;;;19.35;85.37
14242;BME280;7205;50.864;12.766;2023-09-30T00:09:58;98160.41;;;19.20;84.75
14242;BME280;7205;50.864;12.766;2023-09-30T00:12:26;98160.91;;;19.04;84.30
14242;BME280;7205;50.864;12.766;2023-09-30T00:14:53;98165.34;;;18.86;83.99
14242;BME280;7205;50.864;12.766;2023-09-30T00:17:20;98163.16;;;18.69;84.31
14242;BME280;7205;50.864;12.766;2023-09-30T00:19:46;98173.09;;;18.56;84.47
14242;BME280;7205;50.864;12.766;2023-09-30T00:22:13;98175.41;;;18.46;84.60
14242;BME280;7205;50.864;12.766;2023-09-30T00:24:40;98180.13;;;18.37;84.43
14242;BME280;7205;50.864;12.766;2023-09-30T00:27:07;98189.03;;;18.25;84.61
14242;BME280;7205;50.864;12.766;2023-09-30T00:29:35;98189.06;;;18.18;84.80
14242;BME280;7205;50.864;12.766;2023-09-30T00:32:02;98195.66;;;18.09;84.64
14242;BME280;7205;50.864;12.766;2023-09-30T00:34:32;98204.72;;;18.02;84.27
14242;BME280;7205;50.864;12.766;2023-09-30T00:36:59;98199.56;;;17.94;84.16
14242;BME280;7205;50.864;12.766;2023-09-30T00:39:26;98199.16;;;17.90;83.97
14242;BME280;7205;50.864;12.766;2023-09-30T00:41:55;98202.06;;;17.82;83.96
14242;BME280;7205;50.864;12.766;2023-09-30T00:44:24;98206.38;;;17.77;84.03
14242;BME280;7205;50.864;12.766;2023-09-30T00:46:53;98199.19;;;17.71;83.91
14242;BME280;7205;50.864;12.766;2023-09-30T00:49:21;98208.84;;;17.52;83.09
14242;BME280;7205;50.864;12.766;2023-09-30T00:51:49;98209.00;;;17.18;83.66
14242;BME280;7205;50.864;12.766;2023-09-30T00:54:17;98205.81;;;16.82;86.00
14242;BME280;7205;50.864;12.766;2023-09-30T00:56:45;98226.63;;;16.52;88.19
14242;BME280;7205;50.864;12.766;2023-09-30T00:59:12;98220.53;;;16.30;90.41
14242;BME280;7205;50.864;12.766;2023-09-30T01:01:40;98235.81;;;16.15;92.03
14242;BME280;7205;50.864;12.766;2023-09-30T01:04:08;98230.00;;;16.05;93.97
14242;BME280;7205;50.864;12.766;2023-09-30T01:06:37;98227.50;;;15.97;95.98
14242;BME280;7205;50.864;12.766;2023-09-30T01:09:04;98235.06;;;15.94;97.19
14242;BME280;7205;50.864;12.766;2023-09-30T01:11:31;98230.09;;;15.91;98.69
14242;BME280;7205;50.864;12.766;2023-09-30T01:13:58;98234.41;;;15.92;99.79
14242;BME280;7205;50.864;12.766;2023-09-30T01:16:24;98239.34;;;15.95;100.00
14242;BME280;7205;50.864;12.766;2023-09-30T01:18:51;98237.53;;;15.95;100.00
14242;BME280;7205;50.864;12.766;2023-09-30T01:21:20;98243.50;;;15.97;100.00
14242;BME280;7205;50.864;12.766;2023-09-30T01:23:48;98252.72;;;16.01;100.00
14242;BME280;7205;50.864;12.766;2023-09-30T01:26:15;98262.97;;;16.04;100.00
14242;BME280;7205;50.864;12.766;2023-09-30T01:28:42;98252.97;;;16.06;100.00
14242;BME280;7205;50.864;12.766;2023-09-30T01:31:09;98250.94;;;16.08;100.00
14242;BME280;7205;50.864;12.766;2023-09-30T01:33:36;98260.34;;;16.11;100.00
14242;BME280;7205;50.864;12.766;2023-09-30T01:36:03;98261.63;;;16.15;100.00
14242;BME280;7205;50.864;12.766;2023-09-30T01:38:30;98267.41;;;16.18;100.00
14242;BME280;7205;50.864;12.766;2023-09-30T01:40:58;98263.50;;;16.21;100.00
14242;BME280;7205;50.864;12.766;2023-09-30T01:43:26;98265.16;;;16.22;100.00
14242;BME280;7205;50.864;12.766;2023-09-30T01:45:52;98271.13;;;16.24;100.00
14242;BME280;7205;50.864;12.766;2023-09-30T01:48:19;98268.06;;;16.27;100.00
14242;BME280;7205;50.864;12.766;2023-09-30T01:50:46;98272.56;;;16.26;100.00
14242;BME280;7205;50.864;12.766;2023-09-30T01:53:13;98292.06;;;16.27;100.00
14242;BME280;7205;50.864;12.766;2023-09-30T01:55:40;98287.72;;;16.26;100.00
14242;BME280;7205;50.864;12.766;2023-09-30T01:58:08;98289.78;;;16.24;100.00
14242;BME280;7205;50.864;12.766;2023-09-30T02:00:36;98293.03;;;16.19;100.00
14242;BME280;7205;50.864;12.766;2023-09-30T02:03:03;98294.25;;;16.17;100.00
14242;BME280;7205;50.864;12.766;2023-09-30T02:05:30;98306.28;;;16.13;100.00
14242;BME280;7205;50.864;12.766;2023-09-30T02:07:57;98294.19;;;16.10;100.00
14242;BME280;7205;50.864;12.766;2023-09-30T02:10:23;98304.22;;;16.08;100.00
14242;BME280;7205;50.864;12.766;2023-09-30T02:12:50;98298.25;;;16.06;99.10
14242;BME280;7205;50.864;12.766;2023-09-30T02:15:18;98292.50;;;16.03;96.82
14242;BME280;7205;50.864;12.766;2023-09-30T02:17:46;98302.69;;;15.99;95.29
14242;BME280;7205;50.864;12.766;2023-09-30T02:20:14;98302.25;;;15.96;94.75
14242;BME280;7205;50.864;12.766;2023-09-30T02:22:45;98309.66;;;15.94;93.71
14242;BME280;7205;50.864;12.766;2023-09-30T02:25:13;98307.97;;;15.93;93.37
14242;BME280;7205;50.864;12.766;2023-09-30T02:27:41;98306.78;;;15.95;92.73
14242;BME280;7205;50.864;12.766;2023-09-30T02:30:09;98299.00;;;15.94;92.42
14242;BME280;7205;50.864;12.766;2023-09-30T02:32:39;98310.00;;;15.91;92.02
14242;BME280;7205;50.864;12.766;2023-09-30T02:35:07;98309.00;;;15.92;92.16
14242;BME280;7205;50.864;12.766;2023-09-30T02:37:36;98309.00;;;15.92;91.74
14242;BME280;7205;50.864;12.766;2023-09-30T02:40:04;98312.66;;;15.91;91.65
14242;BME280;7205;50.864;12.766;2023-09-30T02:42:35;98305.91;;;15.88;91.78
14242;BME280;7205;50.864;12.766;2023-09-30T02:45:03;98312.25;;;15.87;92.42
14242;BME280;7205;50.864;12.766;2023-09-30T02:47:30;98317.75;;;15.86;91.92
14242;BME280;7205;50.864;12.766;2023-09-30T02:50:00;98320.59;;;15.84;92.20
14242;BME280;7205;50.864;12.766;2023-09-30T02:52:27;98323.47;;;15.83;92.33
14242;BME280;7205;50.864;12.766;2023-09-30T02:54:55;98337.63;;;15.83;92.56
14242;BME280;7205;50.864;12.766;2023-09-30T02:57:23;98333.31;;;15.82;92.88
14242;BME280;7205;50.864;12.766;2023-09-30T02:59:49;98344.31;;;15.79;92.81
14242;BME280;7205;50.864;12.766;2023-09-30T03:02:18;98348.84;;;15.79;92.95
14242;BME280;7205;50.864;12.766;2023-09-30T03:04:48;98349.03;;;15.77;92.80
14242;BME280;7205;50.864;12.766;2023-09-30T03:07:18;98363.56;;;15.75;92.71
14242;BME280;7205;50.864;12.766;2023-09-30T03:09:45;98357.56;;;15.73;92.81
14242;BME280;7205;50.864;12.766;2023-09-30T03:12:13;98359.78;;;15.69;92.65
14242;BME280;7205;50.864;12.766;2023-09-30T03:14:40;98366.34;;;15.67;93.16
14242;BME280;7205;50.864;12.766;2023-09-30T03:17:08;98381.47;;;15.66;93.46
14242;BME280;7205;50.864;12.766;2023-09-30T03:19:38;98393.53;;;15.62;93.07
14242;BME280;7205;50.864;12.766;2023-09-30T03:22:05;98390.63;;;15.57;92.92
14242;BME280;7205;50.864;12.766;2023-09-30T03:24:39;98396.28;;;15.54;92.93
14242;BME280;7205;50.864;12.766;2023-09-30T03:27:06;98403.03;;;15.50;92.97
14242;BME280;7205;50.864;12.766;2023-09-30T03:29:35;98400.91;;;15.46;92.94
14242;BME280;7205;50.864;12.766;2023-09-30T03:32:03;98399.66;;;15.42;93.22
14242;BME280;7205;50.864;12.766;2023-09-30T03:34:30;98411.47;;;15.39;93.45
14242;BME280;7205;50.864;12.766;2023-09-30T03:36:57;98413.03;;;15.34;93.76
14242;BME280;7205;50.864;12.766;2023-09-30T03:39:25;98395.59;;;15.31;93.54
14242;BME280;7205;50.864;12.766;2023-09-30T03:41:54;98403.94;;;15.28;93.62
14242;BME280;7205;50.864;12.766;2023-09-30T03:44:21;98399.63;;;15.27;93.88
14242;BME280;7205;50.864;12.766;2023-09-30T03:49:16;98420.28;;;15.25;94.15
14242;BME280;7205;50.864;12.766;2023-09-30T03:51:45;98414.13;;;15.25;94.40
14242;BME280;7205;50.864;12.766;2023-09-30T03:54:11;98429.25;;;15.24;94.30
14242;BME280;7205;50.864;12.766;2023-09-30T03:56:38;98431.94;;;15.24;94.57
14242;BME280;7205;50.864;12.766;2023-09-30T03:59:08;98423.75;;;15.26;95.17
14242;BME280;7205;50.864;12.766;2023-09-30T04:01:35;98434.84;;;15.29;95.55
14242;BME280;7205;50.864;12.766;2023-09-30T04:04:06;98428.53;;;15.30;95.78
14242;BME280;7205;50.864;12.766;2023-09-30T04:06:33;98437.78;;;15.34;95.59
14242;BME280;7205;50.864;12.766;2023-09-30T04:09:03;98448.91;;;15.38;95.92
14242;BME280;7205;50.864;12.766;2023-09-30T04:11:35;98441.75;;;15.38;95.85
14242;BME280;7205;50.864;12.766;2023-09-30T04:14:02;98447.91;;;15.39;95.80
14242;BME280;7205;50.864;12.766;2023-09-30T04:16:30;98449.72;;;15.38;95.99
14242;BME280;7205;50.864;12.766;2023-09-30T04:18:57;98436.41;;;15.38;95.90
14242;BME280;7205;50.864;12.766;2023-09-30T04:21:24;98453.38;;;15.37;96.07
14242;BME280;7205;50.864;12.766;2023-09-30T04:23:52;98451.56;;;15.38;96.35
14242;BME280;7205;50.864;12.766;2023-09-30T04:26:19;98455.25;;;15.37;96.41
14242;BME280;7205;50.864;12.766;2023-09-30T04:28:46;98458.28;;;15.34;96.12
14242;BME280;7205;50.864;12.766;2023-09-30T04:31:12;98459.09;;;15.34;96.44
14242;BME280;7205;50.864;12.766;2023-09-30T04:33:41;98464.59;;;15.33;96.02
14242;BME280;7205;50.864;12.766;2023-09-30T04:36:08;98458.63;;;15.31;96.16
14242;BME280;7205;50.864;12.766;2023-09-30T04:38:36;98460.47;;;15.30;96.78
14242;BME280;7205;50.864;12.766;2023-09-30T04:41:03;98455.34;;;15.29;96.80
14242;BME280;7205;50.864;12.766;2023-09-30T04:43:32;98463.13;;;15.30;96.54
14242;BME280;7205;50.864;12.766;2023-09-30T04:45:59;98460.03;;;15.27;96.45
14242;BME280;7205;50.864;12.766;2023-09-30T04:48:28;98456.91;;;15.23;96.56
14242;BME280;7205;50.864;12.766;2023-09-30T04:50:56;98457.09;;;15.22;96.40
14242;BME280;7205;50.864;12.766;2023-09-30T04:53:23;98460.91;;;15.19;96.87
14242;BME280;7205;50.864;12.766;2023-09-30T04:55:50;98451.69;;;15.15;96.66
14242;BME280;7205;50.864;12.766;2023-09-30T04:58:17;98453.03;;;15.11;96.93
14242;BME280;7205;50.864;12.766;2023-09-30T05:00:43;98452.75;;;15.06;97.01
14242;BME280;7205;50.864;12.766;2023-09-30T05:03:10;98449.19;;;14.99;96.72
14242;BME280;7205;50.864;12.766;2023-09-30T05:05:37;98465.69;;;14.94;97.10
14242;BME280;7205;50.864;12.766;2023-09-30T05:08:05;98469.72;;;14.90;97.30
14242;BME280;7205;50.864;12.766;2023-09-30T05:10:32;98463.94;;;14.87;97.41
14242;BME280;7205;50.864;12.766;2023-09-30T05:12:59;98461.63;;;14.84;97.94
14242;BME280;7205;50.864;12.766;2023-09-30T05:15:26;98462.84;;;14.81;97.77
14242;BME280;7205;50.864;12.766;2023-09-30T05:17:54;98455.84;;;14.80;98.21
14242;BME280;7205;50.864;12.766;2023-09-30T05:20:21;98459.72;;;14.78;97.84
14242;BME280;7205;50.864;12.766;2023-09-30T05:22:49;98459.91;;;14.76;98.62
14242;BME280;7205;50.864;12.766;2023-09-30T05:25:17;98467.03;;;14.76;98.59
14242;BME280;7205;50.864;12.766;2023-09-30T05:27:45;98475.03;;;14.76;98.82
14242;BME280;7205;50.864;12.766;2023-09-30T05:30:13;98471.53;;;14.75;98.71
14242;BME280;7205;50.864;12.766;2023-09-30T05:32:41;98468.88;;;14.75;98.82
14242;BME280;7205;50.864;12.766;2023-09-30T05:35:09;98477.69;;;14.76;98.62
14242;BME280;7205;50.864;12.766;2023-09-30T05:37:39;98478.50;;;14.76;98.85
14242;BME280;7205;50.864;12.766;2023-09-30T05:40:07;98496.47;;;14.74;98.49
14242;BME280;7205;50.864;12.766;2023-09-30T05:42:44;98491.53;;;14.71;98.43
14242;BME280;7205;50.864;12.766;2023-09-30T05:45:11;98486.19;;;14.71;98.96
14242;BME280;7205;50.864;12.766;2023-09-30T05:47:38;98489.66;;;14.72;98.98
14242;BME280;7205;50.864;12.766;2023-09-30T05:50:07;98486.38;;;14.70;98.91
14242;BME280;7205;50.864;12.766;2023-09-30T05:52:34;98490.03;;;14.69;98.88
14242;BME280;7205;50.864;12.766;2023-09-30T05:55:03;98506.00;;;14.69;98.58
14242;BME280;7205;50.864;12.766;2023-09-30T05:57:30;98513.16;;;14.68;98.78
14242;BME280;7205;50.864;12.766;2023-09-30T05:59:58;98515.16;;;14.66;99.18
14242;BME280;7205;50.864;12.766;2023-09-30T06:02:24;98529.44;;;14.65;99.28
14242;BME280;7205;50.864;12.766;2023-09-30T06:04:51;98522.47;;;14.64;99.08
14242;BME280;7205;50.864;12.766;2023-09-30T06:07:19;98535.78;;;14.64;99.53
14242;BME280;7205;50.864;12.766;2023-09-30T06:09:46;98539.91;;;14.67;99.93
14242;BME280;7205;50.864;12.766;2023-09-30T06:12:13;98551.84;;;14.71;100.00
14242;BME280;7205;50.864;12.766;2023-09-30T06:14:40;98543.50;;;14.74;100.00
14242;BME280;7205;50.864;12.766;2023-09-30T06:17:08;98538.84;;;14.76;99.59
14242;BME280;7205;50.864;12.766;2023-09-30T06:19:35;98545.50;;;14.72;99.32
14242;BME280;7205;50.864;12.766;2023-09-30T06:22:03;98545.06;;;14.68;99.18
14242;BME280;7205;50.864;12.766;2023-09-30T06:24:30;98541.47;;;14.61;99.14
14242;BME280;7205;50.864;12.766;2023-09-30T06:26:57;98543.81;;;14.56;99.45
14242;BME280;7205;50.864;12.766;2023-09-30T06:29:23;98550.50;;;14.52;99.63
14242;BME280;7205;50.864;12.766;2023-09-30T06:31:52;98549.50;;;14.53;99.88
14242;BME280;7205;50.864;12.766;2023-09-30T06:34:20;98547.00;;;14.52;99.84
14242;BME280;7205;50.864;12.766;2023-09-30T06:36:47;98547.00;;;14.52;100.00
14242;BME280;7205;50.864;12.766;2023-09-30T06:39:14;98541.06;;;14.50;100.00
14242;BME280;7205;50.864;12.766;2023-09-30T06:41:41;98544.19;;;14.53;100.00
14242;BME280;7205;50.864;12.766;2023-09-30T06:44:10;98562.25;;;14.58;100.00
14242;BME280;7205;50.864;12.766;2023-09-30T06:46:38;98567.69;;;14.64;100.00
14242;BME280;7205;50.864;12.766;2023-09-30T06:49:05;98573.13;;;14.71;100.00
14242;BME280;7205;50.864;12.766;2023-09-30T06:51:34;98571.22;;;14.79;100.00
14242;BME280;7205;50.864;12.766;2023-09-30T06:54:00;98564.84;;;14.88;100.00
14242;BME280;7205;50.864;12.766;2023-09-30T06:56:27;98561.72;;;14.99;100.00
14242;BME280;7205;50.864;12.766;2023-09-30T06:58:54;98569.09;;;15.12;100.00
14242;BME280;7205;50.864;12.766;2023-09-30T07:01:21;98562.88;;;15.20;100.00
14242;BME280;7205;50.864;12.766;2023-09-30T07:03:47;98558.47;;;15.27;99.54
14242;BME280;7205;50.864;12.766;2023-09-30T07:06:21;98561.59;;;15.30;98.45
14242;BME280;7205;50.864;12.766;2023-09-30T07:08:49;98557.56;;;15.34;98.15
14242;BME280;7205;50.864;12.766;2023-09-30T07:11:16;98563.19;;;15.39;97.90
14242;BME280;7205;50.864;12.766;2023-09-30T07:13:43;98567.44;;;15.48;97.43
14242;BME280;7205;50.864;12.766;2023-09-30T07:16:10;98559.72;;;15.53;96.36
14242;BME280;7205;50.864;12.766;2023-09-30T07:18:37;98566.34;;;15.57;95.54
14242;BME280;7205;50.864;12.766;2023-09-30T07:21:03;98569.44;;;15.61;94.70
14242;BME280;7205;50.864;12.766;2023-09-30T07:23:30;98567.22;;;15.64;93.78
14242;BME280;7205;50.864;12.766;2023-09-30T07:25:58;98566.06;;;15.67;92.88
14242;BME280;7205;50.864;12.766;2023-09-30T07:28:25;98574.31;;;15.72;92.28
14242;BME280;7205;50.864;12.766;2023-09-30T07:30:52;98574.78;;;15.75;91.61
14242;BME280;7205;50.864;12.766;2023-09-30T07:33:20;98563.56;;;15.80;91.61
14242;BME280;7205;50.864;12.766;2023-09-30T07:35:47;98559.16;;;15.87;91.47
14242;BME280;7205;50.864;12.766;2023-09-30T07:38:15;98560.41;;;15.91;90.28
14242;BME280;7205;50.864;12.766;2023-09-30T07:40:41;98562.72;;;15.94;89.40
14242;BME280;7205;50.864;12.766;2023-09-30T07:43:10;98567.03;;;15.95;88.30
14242;BME280;7205;50.864;12.766;2023-09-30T07:45:38;98577.50;;;15.96;87.77
14242;BME280;7205;50.864;12.766;2023-09-30T07:48:06;98579.97;;;15.98;87.06
14242;BME280;7205;50.864;12.766;2023-09-30T07:50:35;98585.13;;;15.99;86.86
14242;BME280;7205;50.864;12.766;2023-09-30T07:53:02;98587.44;;;16.02;86.73
14242;BME280;7205;50.864;12.766;2023-09-30T07:55:29;98578.22;;;16.05;86.32
14242;BME280;7205;50.864;12.766;2023-09-30T07:57:56;98576.84;;;16.09;85.97
14242;BME280;7205;50.864;12.766;2023-09-30T08:00:26;98574.44;;;16.14;85.93
14242;BME280;7205;50.864;12.766;2023-09-30T08:02:52;98579.84;;;16.20;85.88
14242;BME280;7205;50.864;12.766;2023-09-30T08:05:19;98580.78;;;16.27;85.38
14242;BME280;7205;50.864;12.766;2023-09-30T08:07:46;98587.16;;;16.33;84.71
14242;BME280;7205;50.864;12.766;2023-09-30T08:10:13;98581.28;;;16.38;84.25
14242;BME280;7205;50.864;12.766;2023-09-30T08:12:42;98580.91;;;16.41;83.36
14242;BME280;7205;50.864;12.766;2023-09-30T08:15:11;98583.19;;;16.44;83.28
14242;BME280;7205;50.864;12.766;2023-09-30T08:17:40;98583.47;;;16.49;82.64
14242;BME280;7205;50.864;12.766;2023-09-30T08:20:07;98586.59;;;16.52;82.07
14242;BME280;7205;50.864;12.766;2023-09-30T08:22:35;98589.53;;;16.57;81.73
14242;BME280;7205;50.864;12.766;2023-09-30T08:25:02;98590.97;;;16.60;81.31
14242;BME280;7205;50.864;12.766;2023-09-30T08:27:28;98586.91;;;16.64;80.99
14242;BME280;7205;50.864;12.766;2023-09-30T08:29:55;98596.81;;;16.70;81.03
14242;BME280;7205;50.864;12.766;2023-09-30T08:32:22;98603.69;;;16.79;81.87
14242;BME280;7205;50.864;12.766;2023-09-30T08:34:50;98606.22;;;16.87;81.18
14242;BME280;7205;50.864;12.766;2023-09-30T08:37:17;98607.69;;;16.89;79.92
14242;BME280;7205;50.864;12.766;2023-09-30T08:39:44;98612.47;;;16.94;79.76
14242;BME280;7205;50.864;12.766;2023-09-30T08:42:11;98610.63;;;16.94;78.85
14242;BME280;7205;50.864;12.766;2023-09-30T08:44:38;98609.97;;;16.92;78.24
14242;BME280;7205;50.864;12.766;2023-09-30T08:47:06;98607.31;;;16.92;78.36
14242;BME280;7205;50.864;12.766;2023-09-30T08:49:34;98620.41;;;16.87;77.47
14242;BME280;7205;50.864;12.766;2023-09-30T08:52:05;98622.63;;;16.84;76.51
14242;BME280;7205;50.864;12.766;2023-09-30T08:54:32;98619.91;;;16.77;76.20
14242;BME280;7205;50.864;12.766;2023-09-30T08:57:00;98622.94;;;16.74;76.48
14242;BME280;7205;50.864;12.766;2023-09-30T08:59:28;98626.59;;;16.73;77.02
14242;BME280;7205;50.864;12.766;2023-09-30T09:01:56;98632.41;;;16.77;77.39
14242;BME280;7205;50.864;12.766;2023-09-30T09:04:24;98632.25;;;16.85;77.41
14242;BME280;7205;50.864;12.766;2023-09-30T09:06:53;98633.75;;;16.87;76.28
14242;BME280;7205;50.864;12.766;2023-09-30T09:09:23;98621.22;;;16.88;75.73
14242;BME280;7205;50.864;12.766;2023-09-30T09:11:49;98627.00;;;16.91;75.61
14242;BME280;7205;50.864;12.766;2023-09-30T09:14:17;98629.34;;;17.01;75.66
14242;BME280;7205;50.864;12.766;2023-09-30T09:16:51;98629.66;;;17.12;75.17
14242;BME280;7205;50.864;12.766;2023-09-30T09:19:19;98623.16;;;17.21;74.39
14242;BME280;7205;50.864;12.766;2023-09-30T09:21:53;98623.84;;;17.30;73.95
14242;BME280;7205;50.864;12.766;2023-09-30T09:24:29;98620.88;;;17.39;73.73
14242;BME280;7205;50.864;12.766;2023-09-30T09:27:06;98630.78;;;17.45;72.84
14242;BME280;7205;50.864;12.766;2023-09-30T09:29:33;98633.06;;;17.48;71.80
14242;BME280;7205;50.864;12.766;2023-09-30T09:32:09;98632.66;;;17.51;71.35
14242;BME280;7205;50.864;12.766;2023-09-30T09:34:36;98623.69;;;17.59;71.24
14242;BME280;7205;50.864;12.766;2023-09-30T09:37:14;98625.34;;;17.60;70.20
14242;BME280;7205;50.864;12.766;2023-09-30T09:39:50;98628.84;;;17.61;69.41
14242;BME280;7205;50.864;12.766;2023-09-30T09:42:27;98633.59;;;17.65;69.96
14242;BME280;7205;50.864;12.766;2023-09-30T09:44:56;98631.78;;;17.72;69.95
14242;BME280;7205;50.864;12.766;2023-09-30T09:47:23;98630.44;;;17.83;68.96
14242;BME280;7205;50.864;12.766;2023-09-30T09:49:51;98631.09;;;17.91;68.02
14242;BME280;7205;50.864;12.766;2023-09-30T09:52:19;98631.38;;;18.03;68.18
14242;BME280;7205;50.864;12.766;2023-09-30T09:54:51;98620.09;;;18.14;67.62
14242;BME280;7205;50.864;12.766;2023-09-30T09:57:18;98624.06;;;18.24;66.85
14242;BME280;7205;50.864;12.766;2023-09-30T09:59:46;98623.09;;;18.32;66.07
14242;BME280;7205;50.864;12.766;2023-09-30T10:02:15;98622.88;;;18.33;64.53
14242;BME280;7205;50.864;12.766;2023-09-30T10:04:43;98624.50;;;18.28;63.91
14242;BME280;7205;50.864;12.766;2023-09-30T10:07:12;98621.19;;;18.26;63.69
14242;BME280;7205;50.864;12.766;2023-09-30T10:09:45;98626.09;;;18.22;63.15
14242;BME280;7205;50.864;12.766;2023-09-30T10:12:15;98628.75;;;18.16;62.80
14242;BME280;7205;50.864;12.766;2023-09-30T10:14:42;98627.66;;;18.04;62.53
14242;BME280;7205;50.864;12.766;2023-09-30T10:17:09;98627.59;;;17.91;62.44
14242;BME280;7205;50.864;12.766;2023-09-30T10:20:05;98634.28;;;17.74;62.52
14242;BME280;7205;50.864;12.766;2023-09-30T10:22:33;98630.31;;;17.63;63.38
14242;BME280;7205;50.864;12.766;2023-09-30T10:25:00;98638.09;;;17.58;64.24
14242;BME280;7205;50.864;12.766;2023-09-30T10:27:33;98645.28;;;17.58;64.29
14242;BME280;7205;50.864;12.766;2023-09-30T10:30:12;98643.78;;;17.55;63.92
14242;BME280;7205;50.864;12.766;2023-09-30T10:33:10;98637.00;;;17.52;63.63
14242;BME280;7205;50.864;12.766;2023-09-30T10:35:47;98638.84;;;17.52;62.50
14242;BME280;7205;50.864;12.766;2023-09-30T10:38:36;98633.91;;;17.49;61.40
14242;BME280;7205;50.864;12.766;2023-09-30T10:41:06;98634.94;;;17.48;61.77
14242;BME280;7205;50.864;12.766;2023-09-30T10:43:36;98641.06;;;17.48;62.13
14242;BME280;7205;50.864;12.766;2023-09-30T10:46:04;98639.44;;;17.47;61.68
14242;BME280;7205;50.864;12.766;2023-09-30T10:48:34;98637.31;;;17.43;60.99
14242;BME280;7205;50.864;12.766;2023-09-30T10:51:01;98641.78;;;17.36;61.07
14242;BME280;7205;50.864;12.766;2023-09-30T10:53:29;98642.72;;;17.28;60.93
14242;BME280;7205;50.864;12.766;2023-09-30T10:55:58;98644.97;;;17.25;60.99
14242;BME280;7205;50.864;12.766;2023-09-30T10:58:40;98638.38;;;17.21;61.12
14242;BME280;7205;50.864;12.766;2023-09-30T11:01:08;98637.59;;;17.27;61.05
14242;BME280;7205;50.864;12.766;2023-09-30T11:03:34;98626.31;;;17.31;60.21
14242;BME280;7205;50.864;12.766;2023-09-30T11:06:02;98622.25;;;17.35;59.88
14242;BME280;7205;50.864;12.766;2023-09-30T11:08:30;98627.00;;;17.40;59.71
14242;BME280;7205;50.864;12.766;2023-09-30T11:10:57;98624.56;;;17.45;59.57
14242;BME280;7205;50.864;12.766;2023-09-30T11:13:31;98624.25;;;17.48;59.18
14242;BME280;7205;50.864;12.766;2023-09-30T11:16:02;98613.81;;;17.53;58.64
14242;BME280;7205;50.864;12.766;2023-09-30T11:18:30;98608.06;;;17.56;58.76
14242;BME280;7205;50.864;12.766;2023-09-30T11:21:08;98618.75;;;17.56;58.15
14242;BME280;7205;50.864;12.766;2023-09-30T11:23:36;98617.47;;;17.52;57.58
14242;BME280;7205;50.864;12.766;2023-09-30T11:26:04;98616.25;;;17.48;57.35
14242;BME280;7205;50.864;12.766;2023-09-30T11:28:38;98606.09;;;17.43;57.92
14242;BME280;7205;50.864;12.766;2023-09-30T11:31:09;98613.47;;;17.41;57.58
14242;BME280;7205;50.864;12.766;2023-09-30T11:33:50;98601.34;;;17.39;57.05
14242;BME280;7205;50.864;12.766;2023-09-30T11:36:18;98620.03;;;17.39;56.21
14242;BME280;7205;50.864;12.766;2023-09-30T11:38:47;98614.25;;;17.35;55.26
14242;BME280;7205;50.864;12.766;2023-09-30T11:41:15;98602.13;;;17.33;55.37
14242;BME280;7205;50.864;12.766;2023-09-30T11:44:00;98608.66;;;17.30;55.17
14242;BME280;7205;50.864;12.766;2023-09-30T11:46:31;98608.47;;;17.32;55.40
14242;BME280;7205;50.864;12.766;2023-09-30T11:49:01;98612.81;;;17.33;55.78
14242;BME280;7205;50.864;12.766;2023-09-30T11:51:28;98597.78;;;17.32;56.30
14242;BME280;7205;50.864;12.766;2023-09-30T11:53:56;98599.44;;;17.33;56.01
14242;BME280;7205;50.864;12.766;2023-09-30T11:56:24;98602.53;;;17.36;55.63
14242;BME280;7205;50.864;12.766;2023-09-30T11:59:02;98601.94;;;17.34;55.40
14242;BME280;7205;50.864;12.766;2023-09-30T12:01:31;98610.97;;;17.40;54.47
14242;BME280;7205;50.864;12.766;2023-09-30T12:03:59;98597.63;;;17.40;54.22
14242;BME280;7205;50.864;12.766;2023-09-30T12:06:26;98602.97;;;17.40;54.52
14242;BME280;7205;50.864;12.766;2023-09-30T12:08:52;98607.94;;;17.43;54.82
14242;BME280;7205;50.864;12.766;2023-09-30T12:11:19;98601.00;;;17.48;54.94
14242;BME280;7205;50.864;12.766;2023-09-30T12:13:48;98587.69;;;17.55;54.74
14242;BME280;7205;50.864;12.766;2023-09-30T12:16:15;98586.34;;;17.66;54.78
14242;BME280;7205;50.864;12.766;2023-09-30T12:18:43;98590.50;;;17.75;54.43
14242;BME280;7205;50.864;12.766;2023-09-30T12:21:10;98584.56;;;17.79;54.29
14242;BME280;7205;50.864;12.766;2023-09-30T12:23:45;98585.44;;;17.86;53.97
14242;BME280;7205;50.864;12.766;2023-09-30T12:26:14;98580.91;;;17.87;53.31
14242;BME280;7205;50.864;12.766;2023-09-30T12:28:43;98580.09;;;17.86;52.98
14242;BME280;7205;50.864;12.766;2023-09-30T12:31:09;98572.88;;;17.87;52.69
14242;BME280;7205;50.864;12.766;2023-09-30T12:33:36;98567.13;;;17.83;51.58
14242;BME280;7205;50.864;12.766;2023-09-30T12:36:05;98560.31;;;17.81;51.21
14242;BME280;7205;50.864;12.766;2023-09-30T12:38:33;98568.75;;;17.78;50.96
14242;BME280;7205;50.864;12.766;2023-09-30T12:41:00;98561.72;;;17.77;50.56
14242;BME280;7205;50.864;12.766;2023-09-30T12:43:27;98566.06;;;17.78;50.55
14242;BME280;7205;50.864;12.766;2023-09-30T12:45:53;98564.81;;;17.80;50.79
14242;BME280;7205;50.864;12.766;2023-09-30T12:48:22;98563.63;;;17.83;50.62
14242;BME280;7205;50.864;12.766;2023-09-30T12:50:49;98565.47;;;17.82;50.41
14242;BME280;7205;50.864;12.766;2023-09-30T12:53:17;98564.25;;;17.85;50.37
14242;BME280;7205;50.864;12.766;2023-09-30T12:55:44;98556.03;;;17.86;50.62
14242;BME280;7205;50.864;12.766;2023-09-30T12:58:11;98562.00;;;17.88;50.44
14242;BME280;7205;50.864;12.766;2023-09-30T13:00:38;98550.09;;;17.91;49.68
14242;BME280;7205;50.864;12.766;2023-09-30T13:03:04;98546.38;;;17.92;49.83
14242;BME280;7205;50.864;12.766;2023-09-30T13:05:33;98541.88;;;17.92;50.08
14242;BME280;7205;50.864;12.766;2023-09-30T13:08:00;98548.03;;;17.93;50.08